sensor_id;sensor_type;location;lat;lon;timestamp;pressure;altitude;pressure_sealevel;temperature;humidity
43681;BME280;29281;50.356;30.894;2023-02-18T00:00:52;99721.08;;;2.72;100.00
43681;BME280;29281;50.356;30.894;2023-02-18T00:01:57;99712.81;;;2.61;100.00
43681;BME280;29281;50.356;30.894;2023-02-18T00:03:00;99708.48;;;2.60;100.00
43681;BME280;29281;50.356;30.894;2023-02-18T00:04:03;99703.84;;;2.67;100.00
43681;BME280;29281;50.356;30.894;2023-02-18T00:05:07;99696.16;;;2.62;100.00
43681;BME280;29281;50.356;30.894;2023-02-18T00:06:14;99689.69;;;2.51;100.00
43681;BME280;29281;50.356;30.894;2023-02-18T00:07:17;99693.89;;;2.55;100.00
43681;BME280;29281;50.356;30.894;2023-02-18T00:08:21;99685.67;;;2.62;100.00
43681;BME280;29281;50.356;30.894;2023-02-18T00:09:24;99684.31;;;2.74;100.00
43681;BME280;29281;50.356;30.894;2023-02-18T00:10:28;99680.67;;;2.76;100.00
43681;BME280;29281;50.356;30.894;2023-02-18T00:11:35;99690.31;;;2.76;100.00
43681;BME280;29281;50.356;30.894;2023-02-18T00:12:37;99686.84;;;2.75;100.00
43681;BME280;29281;50.356;30.894;2023-02-18T00:13:42;99678.66;;;2.63;100.00
43681;BME280;29281;50.356;30.894;2023-02-18T00:14:46;99675.85;;;2.67;100.00
43681;BME280;29281;50.356;30.894;2023-02-18T00:15:50;99678.78;;;2.80;100.00
43681;BME280;29281;50.356;30.894;2023-02-18T00:16:52;99682.91;;;2.86;100.00
43681;BME280;29281;50.356;30.894;2023-02-18T00:17:57;99678.97;;;2.75;100.00
43681;BME280;29281;50.356;30.894;2023-02-18T00:19:01;99683.22;;;2.59;100.00
43681;BME280;29281;50.356;30.894;2023-02-18T00:20:06;99677.69;;;2.45;100.00
43681;BME280;29281;50.356;30.894;2023-02-18T00:21:12;99677.02;;;2.60;100.00
43681;BME280;29281;50.356;30.894;2023-02-18T00:22:16;99668.84;;;2.68;100.00
43681;BME280;29281;50.356;30.894;2023-02-18T00:23:19;99658.90;;;2.56;100.00
43681;BME280;29281;50.356;30.894;2023-02-18T00:24:22;99657.69;;;2.63;100.00
43681;BME280;29281;50.356;30.894;2023-02-18T00:25:26;99652.91;;;2.72;100.00
43681;BME280;29281;50.356;30.894;2023-02-18T00:26:34;99652.13;;;2.70;100.00
43681;BME280;29281;50.356;30.894;2023-02-18T00:27:38;99642.06;;;2.80;100.00
43681;BME280;29281;50.356;30.894;2023-02-18T00:28:41;99647.77;;;2.90;100.00
43681;BME280;29281;50.356;30.894;2023-02-18T00:29:46;99643.66;;;3.03;100.00
43681;BME280;29281;50.356;30.894;2023-02-18T00:30:50;99637.70;;;2.99;100.00
43681;BME280;29281;50.356;30.894;2023-02-18T00:31:54;99631.95;;;3.10;100.00
43681;BME280;29281;50.356;30.894;2023-02-18T00:33:16;99637.63;;;3.01;100.00
43681;BME280;29281;50.356;30.894;2023-02-18T00:34:19;99638.69;;;2.97;100.00
43681;BME280;29281;50.356;30.894;2023-02-18T00:35:22;99627.00;;;3.04;100.00
43681;BME280;29281;50.356;30.894;2023-02-18T00:36:25;99621.75;;;3.04;100.00
43681;BME280;29281;50.356;30.894;2023-02-18T00:37:30;99620.66;;;3.08;100.00
43681;BME280;29281;50.356;30.894;2023-02-18T00:38:35;99620.52;;;2.92;100.00
43681;BME280;29281;50.356;30.894;2023-02-18T00:39:41;99606.14;;;2.82;100.00
43681;BME280;29281;50.356;30.894;2023-02-18T00:40:47;99611.32;;;2.83;100.00
43681;BME280;29281;50.356;30.894;2023-02-18T00:41:54;99604.25;;;3.04;100.00
43681;BME280;29281;50.356;30.894;2023-02-18T00:43:03;99591.67;;;3.11;100.00
43681;BME280;29281;50.356;30.894;2023-02-18T00:44:07;99598.14;;;3.04;100.00
43681;BME280;29281;50.356;30.894;2023-02-18T00:45:10;99596.00;;;2.93;100.00
43681;BME280;29281;50.356;30.894;2023-02-18T00:46:16;99578.08;;;2.84;100.00
43681;BME280;29281;50.356;30.894;2023-02-18T00:47:20;99581.55;;;2.85;100.00
43681;BME280;29281;50.356;30.894;2023-02-18T00:48:25;99571.98;;;2.83;100.00
43681;BME280;29281;50.356;30.894;2023-02-18T00:49:29;99574.16;;;2.93;100.00
43681;BME280;29281;50.356;30.894;2023-02-18T00:50:33;99568.51;;;2.83;100.00
43681;BME280;29281;50.356;30.894;2023-02-18T00:51:36;99567.01;;;2.77;100.00
43681;BME280;29281;50.356;30.894;2023-02-18T00:52:42;99556.19;;;2.85;100.00
43681;BME280;29281;50.356;30.894;2023-02-18T00:53:45;99554.75;;;2.97;100.00
43681;BME280;29281;50.356;30.894;2023-02-18T00:54:48;99548.66;;;2.96;100.00
43681;BME280;29281;50.356;30.894;2023-02-18T00:55:52;99544.77;;;2.86;100.00
43681;BME280;29281;50.356;30.894;2023-02-18T00:56:56;99546.88;;;2.97;100.00
43681;BME280;29281;50.356;30.894;2023-02-18T00:58:00;99543.06;;;3.04;100.00
43681;BME280;29281;50.356;30.894;2023-02-18T00:59:04;99531.22;;;2.95;100.00
43681;BME280;29281;50.356;30.894;2023-02-18T01:00:08;99525.05;;;2.96;100.00
43681;BME280;29281;50.356;30.894;2023-02-18T01:01:11;99524.70;;;3.04;100.00
43681;BME280;29281;50.356;30.894;2023-02-18T01:02:15;99522.08;;;3.04;100.00
43681;BME280;29281;50.356;30.894;2023-02-18T01:03:20;99514.89;;;3.07;100.00
43681;BME280;29281;50.356;30.894;2023-02-18T01:04:24;99519.16;;;2.91;100.00
43681;BME280;29281;50.356;30.894;2023-02-18T01:05:29;99509.83;;;2.86;100.00
43681;BME280;29281;50.356;30.894;2023-02-18T01:06:33;99511.08;;;2.96;100.00
43681;BME280;29281;50.356;30.894;2023-02-18T01:07:37;99503.73;;;2.85;100.00
43681;BME280;29281;50.356;30.894;2023-02-18T01:08:41;99501.05;;;2.87;100.00
43681;BME280;29281;50.356;30.894;2023-02-18T01:09:45;99496.80;;;2.84;100.00
43681;BME280;29281;50.356;30.894;2023-02-18T01:10:52;99490.97;;;2.77;100.00
43681;BME280;29281;50.356;30.894;2023-02-18T01:11:56;99488.78;;;2.87;100.00
43681;BME280;29281;50.356;30.894;2023-02-18T01:12:59;99491.27;;;2.90;100.00
43681;BME280;29281;50.356;30.894;2023-02-18T01:14:04;99484.73;;;2.80;100.00
43681;BME280;29281;50.356;30.894;2023-02-18T01:15:13;99478.11;;;2.73;100.00
43681;BME280;29281;50.356;30.894;2023-02-18T01:16:18;99477.25;;;2.72;100.00
43681;BME280;29281;50.356;30.894;2023-02-18T01:17:22;99474.91;;;2.66;100.00
43681;BME280;29281;50.356;30.894;2023-02-18T01:18:27;99466.31;;;2.81;100.00
43681;BME280;29281;50.356;30.894;2023-02-18T01:19:30;99469.76;;;3.01;100.00
43681;BME280;29281;50.356;30.894;2023-02-18T01:20:35;99466.35;;;2.99;100.00
43681;BME280;29281;50.356;30.894;2023-02-18T01:21:38;99464.87;;;2.93;100.00
43681;BME280;29281;50.356;30.894;2023-02-18T01:22:42;99463.16;;;2.75;100.00
43681;BME280;29281;50.356;30.894;2023-02-18T01:23:45;99460.10;;;2.65;100.00
43681;BME280;29281;50.356;30.894;2023-02-18T01:24:50;99456.61;;;2.83;100.00
43681;BME280;29281;50.356;30.894;2023-02-18T01:25:53;99449.31;;;2.90;100.00
43681;BME280;29281;50.356;30.894;2023-02-18T01:26:59;99446.69;;;2.90;100.00
43681;BME280;29281;50.356;30.894;2023-02-18T01:28:06;99440.59;;;2.90;100.00
43681;BME280;29281;50.356;30.894;2023-02-18T01:29:09;99434.78;;;2.83;100.00
43681;BME280;29281;50.356;30.894;2023-02-18T01:30:15;99440.12;;;2.99;100.00
43681;BME280;29281;50.356;30.894;2023-02-18T01:31:19;99433.64;;;3.06;100.00
43681;BME280;29281;50.356;30.894;2023-02-18T01:32:26;99433.56;;;3.07;100.00
43681;BME280;29281;50.356;30.894;2023-02-18T01:33:29;99427.95;;;3.15;100.00
43681;BME280;29281;50.356;30.894;2023-02-18T01:34:35;99421.16;;;3.11;100.00
43681;BME280;29281;50.356;30.894;2023-02-18T01:35:39;99417.31;;;3.18;100.00
43681;BME280;29281;50.356;30.894;2023-02-18T01:36:42;99409.97;;;3.25;100.00
43681;BME280;29281;50.356;30.894;2023-02-18T01:37:46;99413.61;;;3.05;100.00
43681;BME280;29281;50.356;30.894;2023-02-18T01:38:55;99404.19;;;3.01;100.00
43681;BME280;29281;50.356;30.894;2023-02-18T01:39:58;99395.14;;;3.06;100.00
43681;BME280;29281;50.356;30.894;2023-02-18T01:41:02;99397.77;;;3.06;100.00
43681;BME280;29281;50.356;30.894;2023-02-18T01:42:12;99390.38;;;3.14;100.00
43681;BME280;29281;50.356;30.894;2023-02-18T01:43:15;99389.05;;;3.23;100.00
43681;BME280;29281;50.356;30.894;2023-02-18T01:44:18;99382.72;;;3.27;100.00
43681;BME280;29281;50.356;30.894;2023-02-18T01:46:41;99369.09;;;3.21;100.00
43681;BME280;29281;50.356;30.894;2023-02-18T01:47:44;99370.86;;;3.20;100.00
43681;BME280;29281;50.356;30.894;2023-02-18T01:48:52;99367.47;;;3.18;100.00
43681;BME280;29281;50.356;30.894;2023-02-18T01:49:55;99361.95;;;3.23;100.00
43681;BME280;29281;50.356;30.894;2023-02-18T01:52:20;99344.37;;;3.25;100.00
43681;BME280;29281;50.356;30.894;2023-02-18T01:53:32;99347.53;;;3.31;100.00
43681;BME280;29281;50.356;30.894;2023-02-18T01:54:42;99342.72;;;3.39;100.00
43681;BME280;29281;50.356;30.894;2023-02-18T01:55:47;99335.00;;;3.36;100.00
43681;BME280;29281;50.356;30.894;2023-02-18T01:56:56;99341.74;;;3.25;100.00
43681;BME280;29281;50.356;30.894;2023-02-18T01:58:01;99338.12;;;3.27;100.00
43681;BME280;29281;50.356;30.894;2023-02-18T01:59:06;99339.43;;;3.36;100.00
43681;BME280;29281;50.356;30.894;2023-02-18T02:00:12;99325.97;;;3.42;100.00
43681;BME280;29281;50.356;30.894;2023-02-18T02:01:16;99332.38;;;3.36;100.00
43681;BME280;29281;50.356;30.894;2023-02-18T02:02:22;99331.87;;;3.30;100.00
43681;BME280;29281;50.356;30.894;2023-02-18T02:03:28;99323.64;;;3.20;100.00
43681;BME280;29281;50.356;30.894;2023-02-18T02:04:31;99320.11;;;3.37;100.00
43681;BME280;29281;50.356;30.894;2023-02-18T02:05:35;99319.75;;;3.27;100.00
43681;BME280;29281;50.356;30.894;2023-02-18T02:06:38;99315.52;;;3.07;100.00
43681;BME280;29281;50.356;30.894;2023-02-18T02:07:41;99315.22;;;3.13;100.00
43681;BME280;29281;50.356;30.894;2023-02-18T02:08:46;99314.14;;;3.17;100.00
43681;BME280;29281;50.356;30.894;2023-02-18T02:09:51;99307.20;;;3.16;100.00
43681;BME280;29281;50.356;30.894;2023-02-18T02:12:20;99295.28;;;3.27;100.00
43681;BME280;29281;50.356;30.894;2023-02-18T02:13:25;99304.23;;;3.23;100.00
43681;BME280;29281;50.356;30.894;2023-02-18T02:24:17;99269.28;;;2.89;100.00
43681;BME280;29281;50.356;30.894;2023-02-18T02:25:24;99267.38;;;3.08;100.00
43681;BME280;29281;50.356;30.894;2023-02-18T02:29:19;99256.77;;;2.94;100.00
43681;BME280;29281;50.356;30.894;2023-02-18T02:30:24;99258.23;;;3.00;100.00
43681;BME280;29281;50.356;30.894;2023-02-18T02:36:12;99243.58;;;2.96;100.00
43681;BME280;29281;50.356;30.894;2023-02-18T02:37:37;99249.66;;;2.96;100.00
43681;BME280;29281;50.356;30.894;2023-02-18T02:38:41;99237.70;;;2.91;100.00
43681;BME280;29281;50.356;30.894;2023-02-18T02:39:50;99237.40;;;2.97;100.00
43681;BME280;29281;50.356;30.894;2023-02-18T02:41:00;99237.95;;;3.03;100.00
43681;BME280;29281;50.356;30.894;2023-02-18T02:42:14;99234.39;;;3.04;100.00
43681;BME280;29281;50.356;30.894;2023-02-18T02:43:30;99232.85;;;3.00;100.00
43681;BME280;29281;50.356;30.894;2023-02-18T02:44:37;99226.91;;;2.97;100.00
43681;BME280;29281;50.356;30.894;2023-02-18T02:45:47;99230.30;;;2.99;100.00
43681;BME280;29281;50.356;30.894;2023-02-18T02:46:50;99217.81;;;3.04;100.00
43681;BME280;29281;50.356;30.894;2023-02-18T02:47:58;99207.55;;;2.99;100.00
43681;BME280;29281;50.356;30.894;2023-02-18T02:50:32;99211.25;;;2.95;100.00
43681;BME280;29281;50.356;30.894;2023-02-18T02:52:45;99193.05;;;2.92;100.00
43681;BME280;29281;50.356;30.894;2023-02-18T02:53:49;99184.60;;;2.87;100.00
43681;BME280;29281;50.356;30.894;2023-02-18T02:54:53;99182.98;;;2.85;100.00
43681;BME280;29281;50.356;30.894;2023-02-18T02:55:56;99178.43;;;2.88;100.00
43681;BME280;29281;50.356;30.894;2023-02-18T02:58:25;99174.11;;;2.87;100.00
43681;BME280;29281;50.356;30.894;2023-02-18T02:59:28;99174.11;;;2.87;100.00
43681;BME280;29281;50.356;30.894;2023-02-18T03:01:52;99182.70;;;2.73;100.00
43681;BME280;29281;50.356;30.894;2023-02-18T03:04:03;99175.73;;;2.90;100.00
43681;BME280;29281;50.356;30.894;2023-02-18T03:06:42;99168.25;;;2.82;100.00
43681;BME280;29281;50.356;30.894;2023-02-18T03:09:09;99168.71;;;2.90;100.00
43681;BME280;29281;50.356;30.894;2023-02-18T03:11:37;99165.20;;;2.74;100.00
43681;BME280;29281;50.356;30.894;2023-02-18T03:12:40;99157.00;;;2.80;100.00
43681;BME280;29281;50.356;30.894;2023-02-18T03:13:52;99150.67;;;2.84;100.00
43681;BME280;29281;50.356;30.894;2023-02-18T03:15:22;99157.45;;;2.88;100.00
43681;BME280;29281;50.356;30.894;2023-02-18T03:17:12;99152.21;;;2.88;100.00
43681;BME280;29281;50.356;30.894;2023-02-18T03:18:33;99154.83;;;2.88;100.00
43681;BME280;29281;50.356;30.894;2023-02-18T03:19:45;99138.64;;;2.80;100.00
43681;BME280;29281;50.356;30.894;2023-02-18T03:20:50;99143.11;;;2.78;100.00
43681;BME280;29281;50.356;30.894;2023-02-18T03:21:57;99145.00;;;2.92;100.00
43681;BME280;29281;50.356;30.894;2023-02-18T03:23:02;99133.16;;;2.85;100.00
43681;BME280;29281;50.356;30.894;2023-02-18T03:24:22;99129.11;;;2.95;100.00
43681;BME280;29281;50.356;30.894;2023-02-18T03:25:21;99130.88;;;2.94;100.00
43681;BME280;29281;50.356;30.894;2023-02-18T03:26:25;99136.20;;;2.93;100.00
43681;BME280;29281;50.356;30.894;2023-02-18T03:27:31;99131.20;;;2.72;100.00
43681;BME280;29281;50.356;30.894;2023-02-18T03:28:36;99128.77;;;2.85;100.00
43681;BME280;29281;50.356;30.894;2023-02-18T03:29:41;99124.95;;;2.91;100.00
43681;BME280;29281;50.356;30.894;2023-02-18T03:30:49;99123.78;;;2.96;100.00
43681;BME280;29281;50.356;30.894;2023-02-18T03:31:54;99129.19;;;2.93;100.00
43681;BME280;29281;50.356;30.894;2023-02-18T03:33:00;99118.89;;;2.90;100.00
43681;BME280;29281;50.356;30.894;2023-02-18T03:34:09;99106.09;;;2.84;100.00
43681;BME280;29281;50.356;30.894;2023-02-18T03:35:12;99110.33;;;2.87;100.00
43681;BME280;29281;50.356;30.894;2023-02-18T03:36:15;99109.75;;;2.97;100.00
43681;BME280;29281;50.356;30.894;2023-02-18T03:37:20;99106.61;;;3.06;100.00
43681;BME280;29281;50.356;30.894;2023-02-18T03:38:30;99099.34;;;2.96;100.00
43681;BME280;29281;50.356;30.894;2023-02-18T03:39:35;99096.02;;;2.92;100.00
43681;BME280;29281;50.356;30.894;2023-02-18T03:40:40;99097.91;;;2.90;100.00
43681;BME280;29281;50.356;30.894;2023-02-18T03:41:43;99095.45;;;2.87;100.00
43681;BME280;29281;50.356;30.894;2023-02-18T03:42:47;99094.25;;;2.93;100.00
43681;BME280;29281;50.356;30.894;2023-02-18T03:43:52;99085.89;;;2.86;100.00
43681;BME280;29281;50.356;30.894;2023-02-18T03:44:55;99084.86;;;2.73;100.00
43681;BME280;29281;50.356;30.894;2023-02-18T03:45:58;99090.68;;;2.78;100.00
43681;BME280;29281;50.356;30.894;2023-02-18T03:47:01;99084.27;;;2.83;100.00
43681;BME280;29281;50.356;30.894;2023-02-18T03:48:08;99085.62;;;2.91;100.00
43681;BME280;29281;50.356;30.894;2023-02-18T03:49:11;99074.79;;;2.81;100.00
43681;BME280;29281;50.356;30.894;2023-02-18T03:50:16;99078.16;;;2.67;100.00
43681;BME280;29281;50.356;30.894;2023-02-18T03:51:19;99074.88;;;2.79;100.00
43681;BME280;29281;50.356;30.894;2023-02-18T03:52:23;99068.71;;;2.96;100.00
43681;BME280;29281;50.356;30.894;2023-02-18T03:53:27;99069.56;;;2.97;100.00
43681;BME280;29281;50.356;30.894;2023-02-18T03:54:30;99068.22;;;3.05;100.00
43681;BME280;29281;50.356;30.894;2023-02-18T03:55:35;99070.33;;;2.99;100.00
43681;BME280;29281;50.356;30.894;2023-02-18T03:56:41;99059.66;;;2.86;100.00
43681;BME280;29281;50.356;30.894;2023-02-18T03:57:44;99068.70;;;2.80;100.00
43681;BME280;29281;50.356;30.894;2023-02-18T03:58:47;99053.98;;;2.78;100.00
43681;BME280;29281;50.356;30.894;2023-02-18T03:59:50;99068.47;;;3.01;100.00
43681;BME280;29281;50.356;30.894;2023-02-18T04:00:54;99040.63;;;2.82;100.00
43681;BME280;29281;50.356;30.894;2023-02-18T04:01:58;99040.71;;;2.97;100.00
43681;BME280;29281;50.356;30.894;2023-02-18T04:03:04;99038.41;;;3.06;100.00
43681;BME280;29281;50.356;30.894;2023-02-18T04:04:08;99041.48;;;2.99;100.00
43681;BME280;29281;50.356;30.894;2023-02-18T04:05:11;99032.68;;;3.00;100.00
43681;BME280;29281;50.356;30.894;2023-02-18T04:06:15;99041.31;;;3.02;100.00
43681;BME280;29281;50.356;30.894;2023-02-18T04:07:18;99027.11;;;2.90;100.00
43681;BME280;29281;50.356;30.894;2023-02-18T04:08:22;99026.75;;;2.96;100.00
43681;BME280;29281;50.356;30.894;2023-02-18T04:09:29;99031.39;;;2.91;100.00
43681;BME280;29281;50.356;30.894;2023-02-18T04:10:32;99021.87;;;2.90;100.00
43681;BME280;29281;50.356;30.894;2023-02-18T04:11:36;99018.64;;;2.85;100.00
43681;BME280;29281;50.356;30.894;2023-02-18T04:12:39;99013.80;;;2.93;100.00
43681;BME280;29281;50.356;30.894;2023-02-18T04:13:45;99009.16;;;2.82;100.00
43681;BME280;29281;50.356;30.894;2023-02-18T04:14:49;99006.55;;;2.82;100.00
43681;BME280;29281;50.356;30.894;2023-02-18T04:15:53;99008.64;;;2.76;100.00
43681;BME280;29281;50.356;30.894;2023-02-18T04:16:56;99007.14;;;2.88;100.00
43681;BME280;29281;50.356;30.894;2023-02-18T04:17:59;98998.50;;;3.01;100.00
43681;BME280;29281;50.356;30.894;2023-02-18T04:19:03;98999.77;;;2.94;100.00
43681;BME280;29281;50.356;30.894;2023-02-18T04:20:07;98990.20;;;2.77;100.00
43681;BME280;29281;50.356;30.894;2023-02-18T04:21:10;98992.50;;;2.83;100.00
43681;BME280;29281;50.356;30.894;2023-02-18T04:22:13;98986.25;;;2.86;100.00
43681;BME280;29281;50.356;30.894;2023-02-18T04:23:16;98984.64;;;2.68;100.00
43681;BME280;29281;50.356;30.894;2023-02-18T04:24:24;98984.39;;;2.88;100.00
43681;BME280;29281;50.356;30.894;2023-02-18T04:25:24;98981.17;;;2.83;100.00
43681;BME280;29281;50.356;30.894;2023-02-18T04:26:28;98986.73;;;2.93;100.00
43681;BME280;29281;50.356;30.894;2023-02-18T04:27:31;98976.09;;;2.80;100.00
43681;BME280;29281;50.356;30.894;2023-02-18T04:28:35;98982.86;;;2.84;100.00
43681;BME280;29281;50.356;30.894;2023-02-18T04:29:40;98983.95;;;2.96;100.00
43681;BME280;29281;50.356;30.894;2023-02-18T04:30:43;98977.36;;;3.04;100.00
43681;BME280;29281;50.356;30.894;2023-02-18T04:31:46;98972.59;;;3.11;100.00
43681;BME280;29281;50.356;30.894;2023-02-18T04:32:51;98974.59;;;3.22;100.00
43681;BME280;29281;50.356;30.894;2023-02-18T04:33:56;98966.19;;;3.01;100.00
43681;BME280;29281;50.356;30.894;2023-02-18T04:35:00;98967.81;;;2.88;100.00
43681;BME280;29281;50.356;30.894;2023-02-18T04:36:03;98964.49;;;3.00;100.00
43681;BME280;29281;50.356;30.894;2023-02-18T04:37:06;98964.13;;;3.06;100.00
43681;BME280;29281;50.356;30.894;2023-02-18T04:38:09;98951.44;;;3.14;100.00
43681;BME280;29281;50.356;30.894;2023-02-18T04:39:13;98945.25;;;3.15;100.00
43681;BME280;29281;50.356;30.894;2023-02-18T04:40:16;98949.91;;;3.10;100.00
43681;BME280;29281;50.356;30.894;2023-02-18T04:41:19;98947.29;;;3.10;100.00
43681;BME280;29281;50.356;30.894;2023-02-18T04:42:24;98944.11;;;3.05;100.00
43681;BME280;29281;50.356;30.894;2023-02-18T04:43:28;98942.50;;;3.02;100.00
43681;BME280;29281;50.356;30.894;2023-02-18T04:44:32;98950.62;;;2.98;100.00
43681;BME280;29281;50.356;30.894;2023-02-18T04:45:36;98948.30;;;3.07;100.00
43681;BME280;29281;50.356;30.894;2023-02-18T04:46:39;98939.70;;;3.05;100.00
43681;BME280;29281;50.356;30.894;2023-02-18T04:47:42;98934.26;;;3.08;100.00
43681;BME280;29281;50.356;30.894;2023-02-18T04:48:45;98940.69;;;3.18;100.00
43681;BME280;29281;50.356;30.894;2023-02-18T04:49:50;98936.67;;;3.27;100.00
43681;BME280;29281;50.356;30.894;2023-02-18T04:50:54;98932.81;;;3.18;100.00
43681;BME280;29281;50.356;30.894;2023-02-18T04:51:58;98926.05;;;3.14;100.00
43681;BME280;29281;50.356;30.894;2023-02-18T04:53:01;98921.82;;;3.12;100.00
43681;BME280;29281;50.356;30.894;2023-02-18T04:54:04;98923.51;;;3.13;100.00
43681;BME280;29281;50.356;30.894;2023-02-18T04:55:07;98917.50;;;3.11;100.00
43681;BME280;29281;50.356;30.894;2023-02-18T04:56:11;98922.88;;;3.24;100.00
43681;BME280;29281;50.356;30.894;2023-02-18T04:57:15;98918.39;;;3.26;100.00
43681;BME280;29281;50.356;30.894;2023-02-18T04:58:19;98922.80;;;3.25;100.00
43681;BME280;29281;50.356;30.894;2023-02-18T04:59:22;98910.78;;;3.21;100.00
43681;BME280;29281;50.356;30.894;2023-02-18T05:00:25;98915.01;;;3.24;100.00
43681;BME280;29281;50.356;30.894;2023-02-18T05:01:30;98913.48;;;3.05;100.00
43681;BME280;29281;50.356;30.894;2023-02-18T05:02:33;98901.42;;;3.17;100.00
43681;BME280;29281;50.356;30.894;2023-02-18T05:03:37;98905.65;;;3.20;100.00
43681;BME280;29281;50.356;30.894;2023-02-18T05:04:42;98907.95;;;3.10;100.00
43681;BME280;29281;50.356;30.894;2023-02-18T05:05:46;98898.63;;;3.20;100.00
43681;BME280;29281;50.356;30.894;2023-02-18T05:06:52;98893.94;;;3.25;100.00
43681;BME280;29281;50.356;30.894;2023-02-18T05:07:55;98896.73;;;3.22;100.00
43681;BME280;29281;50.356;30.894;2023-02-18T05:08:58;98896.00;;;3.20;100.00
43681;BME280;29281;50.356;30.894;2023-02-18T05:10:01;98895.24;;;3.18;100.00
43681;BME280;29281;50.356;30.894;2023-02-18T05:11:08;98888.82;;;3.08;100.00
43681;BME280;29281;50.356;30.894;2023-02-18T05:12:11;98892.41;;;3.21;100.00
43681;BME280;29281;50.356;30.894;2023-02-18T05:13:15;98893.41;;;3.34;100.00
43681;BME280;29281;50.356;30.894;2023-02-18T05:14:20;98899.20;;;3.39;100.00
43681;BME280;29281;50.356;30.894;2023-02-18T05:15:23;98887.58;;;3.29;100.00
43681;BME280;29281;50.356;30.894;2023-02-18T05:16:26;98888.71;;;3.39;100.00
43681;BME280;29281;50.356;30.894;2023-02-18T05:17:30;98887.95;;;3.37;100.00
43681;BME280;29281;50.356;30.894;2023-02-18T05:18:32;98880.08;;;3.37;100.00
43681;BME280;29281;50.356;30.894;2023-02-18T05:19:37;98880.29;;;3.34;100.00
43681;BME280;29281;50.356;30.894;2023-02-18T05:20:41;98878.36;;;3.22;100.00
43681;BME280;29281;50.356;30.894;2023-02-18T05:21:45;98884.75;;;3.18;100.00
43681;BME280;29281;50.356;30.894;2023-02-18T05:22:56;98881.11;;;3.21;100.00
43681;BME280;29281;50.356;30.894;2023-02-18T05:23:57;98879.53;;;3.32;100.00
43681;BME280;29281;50.356;30.894;2023-02-18T05:24:59;98865.37;;;3.21;100.00
43681;BME280;29281;50.356;30.894;2023-02-18T05:26:01;98874.55;;;3.28;100.00
43681;BME280;29281;50.356;30.894;2023-02-18T05:27:04;98870.49;;;3.22;100.00
43681;BME280;29281;50.356;30.894;2023-02-18T05:28:07;98872.48;;;3.18;100.00
43681;BME280;29281;50.356;30.894;2023-02-18T05:29:10;98868.02;;;3.35;100.00
43681;BME280;29281;50.356;30.894;2023-02-18T05:30:14;98860.14;;;3.35;100.00
43681;BME280;29281;50.356;30.894;2023-02-18T05:31:17;98865.09;;;3.39;100.00
43681;BME280;29281;50.356;30.894;2023-02-18T05:32:21;98855.91;;;3.32;100.00
43681;BME280;29281;50.356;30.894;2023-02-18T05:33:24;98846.27;;;3.33;100.00
43681;BME280;29281;50.356;30.894;2023-02-18T05:34:27;98844.19;;;3.38;100.00
43681;BME280;29281;50.356;30.894;2023-02-18T05:35:30;98836.98;;;3.41;100.00
43681;BME280;29281;50.356;30.894;2023-02-18T05:36:33;98841.39;;;3.41;100.00
43681;BME280;29281;50.356;30.894;2023-02-18T05:37:37;98846.19;;;3.48;100.00
43681;BME280;29281;50.356;30.894;2023-02-18T05:38:41;98841.70;;;3.50;100.00
43681;BME280;29281;50.356;30.894;2023-02-18T05:39:48;98825.28;;;3.47;100.00
43681;BME280;29281;50.356;30.894;2023-02-18T05:40:54;98798.37;;;3.58;100.00
43681;BME280;29281;50.356;30.894;2023-02-18T05:41:59;98786.94;;;3.59;100.00
43681;BME280;29281;50.356;30.894;2023-02-18T05:43:03;98789.83;;;3.54;100.00
43681;BME280;29281;50.356;30.894;2023-02-18T05:44:07;98814.97;;;3.58;100.00
43681;BME280;29281;50.356;30.894;2023-02-18T05:45:29;98821.98;;;3.72;100.00
43681;BME280;29281;50.356;30.894;2023-02-18T05:46:32;98833.06;;;3.77;100.00
43681;BME280;29281;50.356;30.894;2023-02-18T05:47:35;98832.58;;;3.70;100.00
43681;BME280;29281;50.356;30.894;2023-02-18T05:48:38;98821.31;;;3.82;100.00
43681;BME280;29281;50.356;30.894;2023-02-18T05:49:43;98820.59;;;3.80;100.00
43681;BME280;29281;50.356;30.894;2023-02-18T05:50:46;98815.21;;;3.82;100.00
43681;BME280;29281;50.356;30.894;2023-02-18T05:51:51;98812.37;;;3.99;100.00
43681;BME280;29281;50.356;30.894;2023-02-18T05:52:54;98799.24;;;3.99;100.00
43681;BME280;29281;50.356;30.894;2023-02-18T05:53:58;98794.33;;;3.80;100.00
43681;BME280;29281;50.356;30.894;2023-02-18T05:55:02;98788.58;;;3.88;100.00
43681;BME280;29281;50.356;30.894;2023-02-18T05:56:06;98801.71;;;3.88;100.00
43681;BME280;29281;50.356;30.894;2023-02-18T05:57:09;98800.80;;;3.75;100.00
43681;BME280;29281;50.356;30.894;2023-02-18T05:58:12;98799.18;;;3.86;100.00
43681;BME280;29281;50.356;30.894;2023-02-18T05:59:16;98810.06;;;3.95;100.00
43681;BME280;29281;50.356;30.894;2023-02-18T06:00:21;98799.16;;;4.01;100.00
43681;BME280;29281;50.356;30.894;2023-02-18T06:01:25;98803.56;;;4.00;100.00
43681;BME280;29281;50.356;30.894;2023-02-18T06:02:28;98806.13;;;3.87;100.00
43681;BME280;29281;50.356;30.894;2023-02-18T06:03:33;98811.76;;;3.67;100.00
43681;BME280;29281;50.356;30.894;2023-02-18T06:04:38;98804.08;;;3.78;100.00
43681;BME280;29281;50.356;30.894;2023-02-18T06:05:43;98793.05;;;4.00;100.00
43681;BME280;29281;50.356;30.894;2023-02-18T06:06:48;98787.33;;;4.08;100.00
43681;BME280;29281;50.356;30.894;2023-02-18T06:07:51;98782.11;;;3.94;100.00
43681;BME280;29281;50.356;30.894;2023-02-18T06:08:56;98783.58;;;3.98;100.00
43681;BME280;29281;50.356;30.894;2023-02-18T06:10:02;98784.75;;;4.20;100.00
43681;BME280;29281;50.356;30.894;2023-02-18T06:11:05;98777.66;;;4.35;100.00
43681;BME280;29281;50.356;30.894;2023-02-18T06:12:07;98778.22;;;4.40;100.00